Time;durP1;ratioP1;P1;durP2;ratioP2;P2;SDS_P1;SDS_P2;PMS_P1;PMS_P2;Temp;Humidity;BMP_temperature;BMP_pressure;BME280_temperature;BME280_humidity;BME280_pressure;Samples;Min_cycle;Max_cycle;Signal;HPM_P1;HPM_P2
2022/05/25 00:00:00;;;;;;;5.07;3.95;;;11.10;99.90;;;;;;5125633;27;20047;-64
2022/05/25 00:02:27;;;;;;;7.05;4.00;;;11.10;99.90;;;;;;5126162;27;20028;-64
2022/05/25 00:04:54;;;;;;;5.90;4.38;;;11.10;99.90;;;;;;5118423;27;20104;-64
2022/05/25 00:07:22;;;;;;;6.88;4.40;;;11.10;99.90;;;;;;5118065;27;20508;-64
2022/05/25 00:09:49;;;;;;;6.63;4.32;;;11.00;99.90;;;;;;5112544;27;20107;-66
2022/05/25 00:12:15;;;;;;;6.82;4.25;;;10.90;99.90;;;;;;5124169;27;20095;-64
2022/05/25 00:14:41;;;;;;;5.13;3.80;;;10.90;99.90;;;;;;5098933;27;20048;-64
2022/05/25 00:17:07;;;;;;;6.22;4.57;;;10.90;99.90;;;;;;5148252;27;20352;-64
2022/05/25 00:22:17;;;;;;;7.25;4.40;;;10.90;99.90;;;;;;5142468;27;20435;-66
2022/05/25 00:24:43;;;;;;;7.15;4.00;;;10.90;99.90;;;;;;5149722;27;20023;-65
2022/05/25 00:27:09;;;;;;;6.45;4.53;;;10.80;99.90;;;;;;5146981;27;20034;-64
2022/05/25 00:29:36;;;;;;;8.68;4.68;;;10.80;99.90;;;;;;5147148;27;20027;-64
2022/05/25 00:32:06;;;;;;;6.95;4.60;;;10.80;99.90;;;;;;5149221;27;20051;-65
2022/05/25 00:34:32;;;;;;;7.95;4.80;;;10.80;99.90;;;;;;5145672;27;20053;-65
2022/05/25 00:36:58;;;;;;;6.20;4.80;;;10.80;99.90;;;;;;5146866;27;20432;-64
2022/05/25 00:39:24;;;;;;;6.63;4.53;;;10.70;99.90;;;;;;5146537;27;20214;-64
2022/05/25 00:41:51;;;;;;;8.90;4.93;;;10.70;99.90;;;;;;5148528;27;20026;-67
2022/05/25 00:44:18;;;;;;;6.22;4.93;;;10.70;99.90;;;;;;5149556;27;20043;-65
2022/05/25 00:46:44;;;;;;;6.50;4.95;;;10.70;99.90;;;;;;5149454;27;20027;-64
2022/05/25 00:49:25;;;;;;;8.23;4.90;;;10.70;99.90;;;;;;5118911;27;20031;-65
2022/05/25 00:51:56;;;;;;;7.35;5.43;;;10.70;99.90;;;;;;5149391;27;20035;-64
2022/05/25 00:54:27;;;;;;;7.80;5.60;;;10.60;99.90;;;;;;5149643;27;20479;-65
2022/05/25 00:56:55;;;;;;;8.05;5.70;;;10.60;99.90;;;;;;5143379;27;20052;-65
2022/05/25 00:59:28;;;;;;;10.25;5.95;;;10.60;99.90;;;;;;5144360;27;20031;-65
2022/05/25 01:01:55;;;;;;;7.28;5.25;;;10.50;99.90;;;;;;5140643;27;20031;-64
2022/05/25 01:04:21;;;;;;;8.55;5.70;;;10.50;99.90;;;;;;5120407;27;20040;-65
2022/05/25 01:06:56;;;;;;;6.53;5.57;;;10.50;99.90;;;;;;5145778;27;20118;-66
2022/05/25 01:09:42;;;;;;;8.75;5.60;;;10.50;99.90;;;;;;5144435;27;20035;-64
2022/05/25 01:12:26;;;;;;;7.95;5.47;;;10.50;99.90;;;;;;5145182;27;20045;-65
2022/05/25 01:15:30;;;;;;;9.57;6.15;;;10.40;99.90;;;;;;5139740;27;20042;-64
2022/05/25 01:18:22;;;;;;;8.52;5.55;;;10.40;99.90;;;;;;5140503;27;20104;-64
2022/05/25 01:21:05;;;;;;;9.43;5.80;;;10.30;99.90;;;;;;5144491;27;20070;-66
2022/05/25 01:24:02;;;;;;;8.57;6.10;;;10.30;99.90;;;;;;5141694;27;20035;-64
2022/05/25 01:26:46;;;;;;;8.05;6.22;;;10.30;99.90;;;;;;5141652;27;20046;-66
2022/05/25 01:29:26;;;;;;;9.43;7.03;;;10.30;99.90;;;;;;5141994;27;20459;-64
2022/05/25 01:32:10;;;;;;;9.75;6.63;;;10.20;99.90;;;;;;5139740;27;20119;-64
2022/05/25 01:34:48;;;;;;;6.88;6.18;;;10.20;99.90;;;;;;5141609;27;20031;-64
2022/05/25 01:37:19;;;;;;;9.18;7.05;;;10.20;99.90;;;;;;5139887;27;20042;-64
2022/05/25 01:39:53;;;;;;;8.52;6.95;;;10.10;99.90;;;;;;5142812;27;20118;-64
2022/05/25 01:42:31;;;;;;;8.30;6.63;;;10.10;99.90;;;;;;5139307;27;20366;-65
2022/05/25 01:45:03;;;;;;;9.85;7.15;;;10.10;99.90;;;;;;5140334;27;20062;-65
2022/05/25 01:47:33;;;;;;;10.80;7.28;;;10.10;99.90;;;;;;5141482;27;20369;-66
2022/05/25 01:50:07;;;;;;;10.43;7.15;;;10.00;99.90;;;;;;5142383;27;20122;-64
2022/05/25 01:52:40;;;;;;;9.27;7.20;;;10.00;99.90;;;;;;5139978;27;20134;-65
2022/05/25 01:55:11;;;;;;;11.15;7.65;;;10.00;99.90;;;;;;5143083;27;20083;-64
2022/05/25 01:57:44;;;;;;;9.05;7.50;;;10.00;99.90;;;;;;5136986;27;20045;-64
2022/05/25 02:00:24;;;;;;;8.95;7.40;;;10.00;99.90;;;;;;5145223;27;20030;-65
2022/05/25 02:05:36;;;;;;;11.02;8.15;;;10.00;99.90;;;;;;5139227;27;20074;-65
2022/05/25 02:08:16;;;;;;;10.10;8.65;;;9.90;99.90;;;;;;5141043;27;20043;-65
2022/05/25 02:11:02;;;;;;;8.77;7.88;;;9.90;99.90;;;;;;5142561;27;20156;-66
2022/05/25 02:13:42;;;;;;;11.57;8.18;;;9.90;99.90;;;;;;5144012;27;20355;-66
2022/05/25 02:17:02;;;;;;;11.35;8.25;;;9.80;99.90;;;;;;5144352;27;20088;-66
2022/05/25 02:19:30;;;;;;;12.15;8.60;;;9.90;99.90;;;;;;5058006;28;20056;-66
2022/05/25 02:22:17;;;;;;;9.30;8.15;;;9.80;99.90;;;;;;5137611;27;20062;-65
2022/05/25 02:25:08;;;;;;;10.35;8.35;;;9.80;99.90;;;;;;5142825;27;20031;-65
2022/05/25 02:27:41;;;;;;;10.23;8.48;;;9.80;99.90;;;;;;5138836;27;20038;-65
2022/05/25 02:30:20;;;;;;;11.57;8.77;;;9.80;99.90;;;;;;5123521;27;20148;-64
2022/05/25 02:32:57;;;;;;;12.70;9.43;;;9.80;99.90;;;;;;5144028;27;20113;-64
2022/05/25 02:35:25;;;;;;;11.63;9.07;;;9.80;99.90;;;;;;5142449;27;20543;-64
2022/05/25 02:37:53;;;;;;;10.95;8.57;;;9.70;99.90;;;;;;5139269;27;20043;-64
2022/05/25 02:40:20;;;;;;;11.68;8.68;;;9.80;99.90;;;;;;5143594;27;20038;-64
2022/05/25 02:42:46;;;;;;;11.27;8.85;;;9.80;99.90;;;;;;5143764;27;20184;-64
2022/05/25 02:45:12;;;;;;;11.13;9.20;;;9.80;99.90;;;;;;5139378;27;20507;-66
2022/05/25 02:47:38;;;;;;;13.02;9.60;;;9.80;99.90;;;;;;5139520;27;20031;-65
2022/05/25 02:50:05;;;;;;;10.88;9.07;;;9.80;99.90;;;;;;5145181;27;20039;-64
2022/05/25 02:52:31;;;;;;;11.55;9.70;;;9.80;99.90;;;;;;5143445;27;20076;-65
2022/05/25 02:54:56;;;;;;;12.20;8.82;;;9.80;99.90;;;;;;5125073;27;20132;-65
2022/05/25 02:57:22;;;;;;;10.38;8.73;;;9.80;99.90;;;;;;5143861;27;20441;-64
2022/05/25 02:59:48;;;;;;;13.90;9.82;;;9.80;99.90;;;;;;5144796;27;20088;-64
2022/05/25 03:02:13;;;;;;;12.20;10.07;;;9.80;99.90;;;;;;5147369;27;20408;-65
2022/05/25 03:04:40;;;;;;;11.93;9.55;;;9.70;99.90;;;;;;5146904;27;20035;-65
2022/05/25 03:07:07;;;;;;;12.55;9.50;;;9.70;99.90;;;;;;5145551;27;20034;-65
2022/05/25 03:09:37;;;;;;;10.52;9.43;;;9.70;99.90;;;;;;5144733;27;20027;-65
2022/05/25 03:12:07;;;;;;;13.90;10.02;;;9.70;99.90;;;;;;5123154;27;20116;-64
2022/05/25 03:14:33;;;;;;;12.73;10.00;;;9.70;99.90;;;;;;5143359;27;20031;-64
2022/05/25 03:17:08;;;;;;;12.05;9.50;;;9.70;99.90;;;;;;5146161;27;20051;-64
2022/05/25 03:19:34;;;;;;;10.68;9.57;;;9.70;99.90;;;;;;5144103;27;20440;-65
2022/05/25 03:22:00;;;;;;;13.55;9.45;;;9.70;99.90;;;;;;5146229;27;20117;-65
2022/05/25 03:24:25;;;;;;;13.98;10.20;;;9.70;99.90;;;;;;5145392;27;20031;-64
2022/05/25 03:26:51;;;;;;;11.70;9.65;;;9.70;99.90;;;;;;5147489;27;20030;-65
2022/05/25 03:29:18;;;;;;;12.60;10.30;;;9.70;99.90;;;;;;5142092;27;20046;-64
2022/05/25 03:31:43;;;;;;;11.93;9.48;;;9.60;99.90;;;;;;5145966;27;20031;-65
2022/05/25 03:34:09;;;;;;;14.93;10.95;;;9.60;99.90;;;;;;5147933;27;20344;-66
2022/05/25 03:36:35;;;;;;;13.80;10.82;;;9.60;99.90;;;;;;5145979;27;20524;-66
2022/05/25 03:39:00;;;;;;;12.15;9.50;;;9.60;99.90;;;;;;5142808;27;20510;-65
2022/05/25 03:41:26;;;;;;;15.00;9.88;;;9.60;99.90;;;;;;5147218;27;20035;-64
2022/05/25 03:43:52;;;;;;;16.63;10.35;;;9.60;99.90;;;;;;5142473;27;20074;-65
2022/05/25 03:46:18;;;;;;;12.10;10.38;;;9.70;99.90;;;;;;5146377;27;20374;-64
2022/05/25 03:48:43;;;;;;;14.43;10.82;;;9.70;99.90;;;;;;5126037;27;20118;-65
2022/05/25 03:51:09;;;;;;;11.70;9.80;;;9.70;99.90;;;;;;5145062;27;20352;-66
2022/05/25 03:53:34;;;;;;;12.98;10.68;;;9.70;99.90;;;;;;5146908;27;20655;-66
2022/05/25 03:56:00;;;;;;;12.25;9.63;;;9.70;99.90;;;;;;5145981;27;20362;-67
2022/05/25 03:58:26;;;;;;;11.73;10.23;;;9.70;99.90;;;;;;5143189;27;20062;-64
2022/05/25 04:00:51;;;;;;;13.82;10.48;;;9.70;99.90;;;;;;5146384;27;20424;-66
2022/05/25 04:03:17;;;;;;;13.60;10.10;;;9.70;99.90;;;;;;5144284;27;20036;-64
2022/05/25 04:05:43;;;;;;;13.40;10.57;;;9.70;99.90;;;;;;5144850;27;20171;-65
2022/05/25 04:08:09;;;;;;;14.70;10.43;;;9.80;99.90;;;;;;5142810;27;20031;-66
2022/05/25 04:10:35;;;;;;;12.02;9.57;;;9.80;99.90;;;;;;5145472;27;20463;-65
2022/05/25 04:13:01;;;;;;;14.25;10.25;;;9.80;99.90;;;;;;5145305;27;20038;-64
2022/05/25 04:15:29;;;;;;;15.77;10.90;;;9.80;99.90;;;;;;5146416;27;20066;-65
2022/05/25 04:17:55;;;;;;;12.30;10.43;;;9.80;99.90;;;;;;5141366;27;20046;-65
2022/05/25 04:20:23;;;;;;;13.52;11.02;;;9.80;99.90;;;;;;5145000;27;20037;-65
2022/05/25 04:22:49;;;;;;;12.05;9.90;;;9.80;99.90;;;;;;5145419;27;20034;-64
2022/05/25 04:25:19;;;;;;;17.45;11.32;;;9.90;99.90;;;;;;5145384;27;20027;-64
2022/05/25 04:27:47;;;;;;;14.20;10.55;;;10.00;99.90;;;;;;5144214;27;20035;-65
2022/05/25 04:30:16;;;;;;;13.45;9.65;;;10.00;99.90;;;;;;5141316;27;20027;-64
2022/05/25 04:32:42;;;;;;;13.75;10.00;;;10.10;99.90;;;;;;5146011;27;20072;-67
2022/05/25 04:35:09;;;;;;;14.80;10.43;;;10.20;99.90;;;;;;5144169;27;20138;-65
2022/05/25 04:37:52;;;;;;;17.95;10.25;;;10.20;99.90;;;;;;5142365;27;20059;-64
2022/05/25 04:40:31;;;;;;;15.18;10.40;;;10.30;99.90;;;;;;5119591;27;20123;-65
2022/05/25 04:42:58;;;;;;;12.50;9.98;;;10.40;99.90;;;;;;5134148;27;20179;-65
2022/05/25 04:45:26;;;;;;;13.18;10.50;;;10.40;99.90;;;;;;5134150;27;20027;-64
2022/05/25 04:47:52;;;;;;;13.80;10.85;;;10.40;99.90;;;;;;5107962;27;20031;-65
2022/05/25 04:50:22;;;;;;;13.85;10.57;;;10.80;99.90;;;;;;5127270;27;20418;-67
2022/05/25 04:52:48;;;;;;;14.82;10.20;;;11.40;99.90;;;;;;5139298;27;20053;-65
2022/05/25 04:58:00;;;;;;;14.02;9.93;;;12.90;99.90;;;;;;5135571;27;20049;-66
2022/05/25 05:00:27;;;;;;;12.50;9.80;;;13.70;99.90;;;;;;5137774;27;20057;-65
2022/05/25 05:02:53;;;;;;;12.10;8.65;;;14.30;99.90;;;;;;5135145;27;20039;-64
2022/05/25 05:05:19;;;;;;;13.73;8.93;;;14.80;99.90;;;;;;5136342;27;20457;-66
2022/05/25 05:07:45;;;;;;;12.52;8.90;;;15.40;99.90;;;;;;5144043;27;20043;-66
2022/05/25 05:10:12;;;;;;;11.27;8.98;;;15.30;99.90;;;;;;5140703;27;20031;-63
2022/05/25 05:12:42;;;;;;;12.82;9.05;;;15.60;99.90;;;;;;5139044;27;20042;-63
2022/05/25 05:15:09;;;;;;;15.45;9.02;;;16.00;99.90;;;;;;5147709;27;20478;-65
2022/05/25 05:17:34;;;;;;;10.93;9.10;;;16.30;99.90;;;;;;5142103;27;20031;-64
2022/05/25 05:20:00;;;;;;;11.13;9.05;;;16.70;99.90;;;;;;5118647;27;20338;-65
2022/05/25 05:22:26;;;;;;;11.25;8.93;;;17.10;99.90;;;;;;5142748;27;20043;-64
2022/05/25 05:24:51;;;;;;;11.40;9.43;;;17.30;99.90;;;;;;5143345;27;20043;-63
2022/05/25 05:27:17;;;;;;;13.27;8.82;;;17.40;99.90;;;;;;5144094;27;20122;-64
2022/05/25 05:29:43;;;;;;;12.77;9.00;;;17.80;99.90;;;;;;5144021;27;20031;-64
2022/05/25 05:32:12;;;;;;;13.98;9.40;;;17.90;99.90;;;;;;5141108;27;20417;-65
2022/05/25 05:34:38;;;;;;;12.32;8.90;;;17.90;99.90;;;;;;5143486;27;20049;-63
2022/05/25 05:37:17;;;;;;;12.10;9.02;;;18.40;99.90;;;;;;5144052;27;20039;-64
2022/05/25 05:39:46;;;;;;;14.02;8.98;;;18.80;99.90;;;;;;5141409;27;20340;-65
2022/05/25 05:42:15;;;;;;;16.70;9.75;;;19.10;99.90;;;;;;5139853;27;20043;-65
2022/05/25 05:44:50;;;;;;;12.57;9.70;;;18.90;99.90;;;;;;5143685;27;20062;-65
2022/05/25 05:47:20;;;;;;;14.60;9.68;;;19.00;99.90;;;;;;5115831;27;20122;-64
2022/05/25 05:49:46;;;;;;;12.73;9.77;;;19.20;99.90;;;;;;5141730;27;20346;-64
2022/05/25 05:52:11;;;;;;;15.68;10.30;;;19.30;99.90;;;;;;5141847;27;20031;-65
2022/05/25 05:54:38;;;;;;;12.48;9.57;;;19.20;99.90;;;;;;5143509;27;20421;-64
2022/05/25 05:57:05;;;;;;;14.20;9.60;;;19.40;99.90;;;;;;5106238;27;20035;-64
2022/05/25 05:59:30;;;;;;;13.85;10.10;;;19.70;99.90;;;;;;5140690;27;20084;-64
2022/05/25 06:01:56;;;;;;;13.68;9.93;;;19.50;99.90;;;;;;5143004;27;20035;-63
2022/05/25 06:04:22;;;;;;;13.73;9.48;;;19.70;99.90;;;;;;5143357;27;20035;-63
2022/05/25 06:06:49;;;;;;;13.52;10.45;;;19.80;99.90;;;;;;5141747;27;20050;-64
2022/05/25 06:09:16;;;;;;;13.93;9.75;;;20.10;99.90;;;;;;5142422;27;20468;-63
2022/05/25 06:11:42;;;;;;;13.70;9.40;;;20.00;99.90;;;;;;5143199;27;20050;-63
2022/05/25 06:14:09;;;;;;;12.30;9.05;;;20.10;99.90;;;;;;5141878;27;20035;-65
2022/05/25 06:19:25;;;;;;;13.18;9.32;;;20.40;99.90;;;;;;5139849;27;20122;-64
2022/05/25 06:22:02;;;;;;;13.23;9.00;;;20.60;99.90;;;;;;5120505;27;20039;-64
2022/05/25 06:24:30;;;;;;;10.82;8.45;;;20.70;99.90;;;;;;5119804;27;20078;-63
2022/05/25 06:26:56;;;;;;;10.85;8.68;;;20.70;99.90;;;;;;5142015;27;20043;-63
2022/05/25 06:29:21;;;;;;;11.75;8.48;;;20.60;99.90;;;;;;5141936;27;20034;-64
2022/05/25 06:31:48;;;;;;;11.90;8.85;;;20.10;99.90;;;;;;5143258;27;20042;-63
2022/05/25 06:34:14;;;;;;;12.23;8.15;;;20.40;99.90;;;;;;5142341;27;20031;-64
2022/05/25 06:36:41;;;;;;;10.90;7.93;;;20.40;99.90;;;;;;5142674;27;20041;-64
2022/05/25 06:39:08;;;;;;;15.05;8.35;;;20.10;99.90;;;;;;5142528;27;20531;-63
2022/05/25 06:41:33;;;;;;;10.73;8.25;;;19.70;99.90;;;;;;5141328;27;20074;-63
2022/05/25 06:44:00;;;;;;;13.43;8.57;;;19.80;99.90;;;;;;5142604;27;20070;-63
2022/05/25 06:46:26;;;;;;;12.70;8.82;;;19.90;99.90;;;;;;5143810;27;20108;-63
2022/05/25 06:48:54;;;;;;;12.95;7.70;;;19.80;99.90;;;;;;5138223;27;20046;-65
2022/05/25 06:51:30;;;;;;;12.88;8.38;;;20.00;99.90;;;;;;5119481;27;20032;-63
2022/05/25 06:53:56;;;;;;;12.60;7.72;;;20.20;99.90;;;;;;5138423;27;20043;-63
2022/05/25 06:56:24;;;;;;;12.73;7.63;;;20.10;99.90;;;;;;5142949;27;20079;-64
2022/05/25 06:58:50;;;;;;;10.95;7.88;;;19.80;99.90;;;;;;5140786;27;20031;-63
2022/05/25 07:01:16;;;;;;;12.00;7.63;;;19.40;99.90;;;;;;5142687;27;20041;-62
2022/05/25 07:03:42;;;;;;;10.85;7.45;;;19.00;99.90;;;;;;5142878;27;20027;-63
2022/05/25 07:06:10;;;;;;;22.80;7.93;;;18.80;99.90;;;;;;5141313;27;20031;-63
2022/05/25 07:08:36;;;;;;;10.02;6.95;;;18.70;99.90;;;;;;5124344;27;20041;-63
2022/05/25 07:11:03;;;;;;;10.55;6.90;;;18.60;99.90;;;;;;5142477;27;20390;-63
2022/05/25 07:13:30;;;;;;;8.82;6.72;;;18.30;99.90;;;;;;5141296;27;20114;-63
2022/05/25 07:15:58;;;;;;;10.70;6.95;;;18.20;99.90;;;;;;5142971;27;20092;-63
2022/05/25 07:18:23;;;;;;;12.65;7.70;;;18.20;99.90;;;;;;5142267;27;20459;-63
2022/05/25 07:20:49;;;;;;;10.90;7.30;;;18.30;99.90;;;;;;5140438;27;20038;-63
2022/05/25 07:23:15;;;;;;;11.45;7.05;;;18.10;99.90;;;;;;5142558;27;20046;-64
2022/05/25 07:25:41;;;;;;;13.77;6.90;;;18.10;99.90;;;;;;5119407;27;20123;-64
2022/05/25 07:28:07;;;;;;;9.77;6.57;;;18.30;99.90;;;;;;5140087;27;20066;-63
2022/05/25 07:30:33;;;;;;;9.45;6.50;;;18.50;99.90;;;;;;5139719;27;20030;-63
2022/05/25 07:32:59;;;;;;;10.05;6.40;;;18.70;99.90;;;;;;5142156;27;20104;-63
2022/05/25 07:35:25;;;;;;;8.63;6.60;;;18.80;99.90;;;;;;5140973;27;20516;-63
2022/05/25 07:37:53;;;;;;;10.75;5.82;;;19.00;99.90;;;;;;5118741;27;20046;-64
2022/05/25 07:40:26;;;;;;;10.75;6.32;;;19.10;99.90;;;;;;5146281;27;20035;-63
2022/05/25 07:42:56;;;;;;;9.40;6.45;;;18.90;99.90;;;;;;5142466;27;20126;-63
2022/05/25 07:45:23;;;;;;;11.93;6.43;;;18.70;99.90;;;;;;5145765;27;20031;-64
2022/05/25 07:47:51;;;;;;;10.43;6.13;;;18.70;99.90;;;;;;5123169;27;20059;-65
2022/05/25 07:50:17;;;;;;;9.60;6.65;;;18.70;99.90;;;;;;5144634;27;20106;-63
2022/05/25 07:52:43;;;;;;;8.85;6.00;;;18.50;99.90;;;;;;5144966;27;20344;-63
2022/05/25 07:55:11;;;;;;;9.10;5.97;;;18.70;99.90;;;;;;5123075;27;20046;-63
2022/05/25 07:57:37;;;;;;;8.45;5.88;;;19.00;99.90;;;;;;5143896;27;20135;-63
2022/05/25 08:00:05;;;;;;;10.15;5.53;;;18.90;99.90;;;;;;5143884;27;20035;-63
2022/05/25 08:08:10;;;;;;;8.70;5.35;;;19.10;99.90;;;;;;5142663;27;20055;-63
2022/05/25 08:10:36;;;;;;;9.68;5.45;;;19.20;99.90;;;;;;5121080;27;20034;-63
2022/05/25 08:13:02;;;;;;;9.05;4.85;;;19.10;99.90;;;;;;5144485;27;20050;-64
2022/05/25 08:15:29;;;;;;;7.40;4.05;;;19.20;99.90;;;;;;5119525;27;20044;-63
2022/05/25 08:17:55;;;;;;;7.15;4.40;;;19.30;99.90;;;;;;5122990;27;20171;-64
2022/05/25 08:20:21;;;;;;;5.90;3.80;;;19.40;99.90;;;;;;5129497;27;20035;-63
2022/05/25 08:22:48;;;;;;;10.82;4.55;;;19.30;99.90;;;;;;5125464;27;20039;-63
2022/05/25 08:25:15;;;;;;;6.38;4.30;;;19.10;99.90;;;;;;5128270;27;20031;-63
2022/05/25 08:27:41;;;;;;;6.78;4.60;;;19.00;99.90;;;;;;5109088;28;20046;-63
2022/05/25 08:30:11;;;;;;;7.13;4.53;;;19.00;99.90;;;;;;5122595;27;20035;-63
2022/05/25 08:32:37;;;;;;;6.78;3.90;;;18.90;99.90;;;;;;5129356;27;20027;-64
2022/05/25 08:35:04;;;;;;;8.30;4.68;;;18.90;99.90;;;;;;5126508;27;20371;-64
2022/05/25 08:37:29;;;;;;;5.55;4.00;;;18.70;99.90;;;;;;5125549;27;20032;-63
2022/05/25 08:39:55;;;;;;;8.00;3.88;;;18.80;99.90;;;;;;5125759;27;20475;-63
2022/05/25 08:42:24;;;;;;;8.25;3.63;;;19.00;99.90;;;;;;5125638;27;20352;-63
2022/05/25 08:44:53;;;;;;;6.97;4.05;;;19.00;99.90;;;;;;5127544;27;20385;-63
2022/05/25 08:47:19;;;;;;;6.55;4.03;;;19.20;99.90;;;;;;5126318;27;20089;-63
2022/05/25 08:49:47;;;;;;;7.32;4.28;;;19.10;99.90;;;;;;5126449;27;20091;-63
2022/05/25 08:52:31;;;;;;;7.72;3.85;;;19.10;99.90;;;;;;5125697;27;20042;-64
2022/05/25 08:55:00;;;;;;;4.93;3.00;;;19.10;99.90;;;;;;5127312;27;20031;-63
2022/05/25 08:57:33;;;;;;;7.20;3.40;;;19.30;99.90;;;;;;5128226;27;20099;-63
2022/05/25 09:00:06;;;;;;;6.50;3.60;;;19.30;99.90;;;;;;5124772;27;20058;-63
2022/05/25 09:02:42;;;;;;;4.85;2.92;;;19.40;99.90;;;;;;5122049;27;20294;-65
2022/05/25 09:05:18;;;;;;;5.30;3.17;;;19.50;99.90;;;;;;5109837;27;20456;-63
2022/05/25 09:08:09;;;;;;;5.95;3.35;;;19.60;99.90;;;;;;5123924;27;20054;-63
2022/05/25 09:10:40;;;;;;;6.95;3.10;;;19.70;99.90;;;;;;5104835;28;20108;-63
2022/05/25 09:13:11;;;;;;;5.72;2.90;;;19.80;99.90;;;;;;5110670;28;20513;-63
2022/05/25 09:16:15;;;;;;;4.70;2.90;;;19.90;99.90;;;;;;5114317;27;20510;-63
2022/05/25 09:18:34;;;;;;;4.18;2.80;;;19.90;99.90;;;;;;5125618;27;20127;-63
2022/05/25 09:21:03;;;;;;;5.68;2.80;;;19.70;99.90;;;;;;5120738;27;20050;-63
2022/05/25 09:23:30;;;;;;;7.72;2.50;;;19.70;99.90;;;;;;5130308;27;20396;-63
2022/05/25 09:25:56;;;;;;;4.82;2.58;;;19.80;99.90;;;;;;5131193;27;20039;-64
2022/05/25 09:28:29;;;;;;;6.05;2.60;;;19.90;99.90;;;;;;5114122;27;20122;-64
2022/05/25 09:30:56;;;;;;;8.38;2.83;;;20.00;99.90;;;;;;5120858;27;20035;-63
2022/05/25 09:33:43;;;;;;;4.38;2.83;;;20.20;99.90;;;;;;5123296;27;20095;-64
2022/05/25 09:36:16;;;;;;;5.82;2.70;;;20.40;99.90;;;;;;5111988;27;20399;-63
2022/05/25 09:38:56;;;;;;;3.45;2.80;;;20.50;99.90;;;;;;5130502;27;20058;-64
2022/05/25 09:41:24;;;;;;;5.72;2.53;;;20.50;99.90;;;;;;5120339;27;20413;-63
2022/05/25 09:43:56;;;;;;;5.15;2.72;;;20.30;99.90;;;;;;5130415;27;20041;-63
2022/05/25 09:46:23;;;;;;;5.28;2.83;;;20.20;99.90;;;;;;5125199;27;20369;-63
2022/05/25 09:49:00;;;;;;;6.53;3.20;;;20.00;99.90;;;;;;5113854;27;20465;-64
2022/05/25 09:51:36;;;;;;;5.22;3.22;;;20.00;99.90;;;;;;5129912;27;20427;-63
2022/05/25 09:54:18;;;;;;;3.65;3.10;;;19.80;99.90;;;;;;5127705;27;20054;-63
2022/05/25 09:56:57;;;;;;;6.05;3.30;;;19.60;99.90;;;;;;5119292;27;20118;-65
2022/05/25 09:59:35;;;;;;;9.07;3.30;;;19.80;99.90;;;;;;5123791;27;20103;-65
2022/05/25 10:02:18;;;;;;;6.85;3.25;;;20.00;99.90;;;;;;5121498;27;20103;-63
2022/05/25 10:04:52;;;;;;;5.35;3.50;;;20.10;99.90;;;;;;5129411;27;20096;-64
2022/05/25 10:07:48;;;;;;;7.05;4.20;;;20.20;99.90;;;;;;5128879;27;20027;-63
2022/05/25 10:10:13;;;;;;;5.68;3.85;;;20.10;99.90;;;;;;5125990;27;20376;-64
2022/05/25 10:12:39;;;;;;;5.75;3.97;;;20.00;99.90;;;;;;5119652;27;20103;-63
2022/05/25 10:15:11;;;;;;;5.85;3.88;;;20.00;99.90;;;;;;5131149;27;20079;-63
2022/05/25 10:17:46;;;;;;;7.63;3.78;;;19.90;99.90;;;;;;5123950;27;20035;-63
2022/05/25 10:20:25;;;;;;;7.35;4.68;;;19.90;99.90;;;;;;5126753;27;20043;-65
2022/05/25 10:23:22;;;;;;;6.15;3.80;;;20.10;99.90;;;;;;5123492;27;20035;-63
2022/05/25 10:25:49;;;;;;;8.10;4.15;;;20.10;99.90;;;;;;5124964;27;20482;-63
2022/05/25 10:28:26;;;;;;;9.38;4.55;;;20.30;99.90;;;;;;5129414;27;20031;-63
2022/05/25 10:37:08;;;;;;;6.03;4.57;;;20.20;99.90;;;;;;5091423;27;20053;-63
2022/05/25 10:39:40;;;;;;;6.05;4.22;;;20.30;99.90;;;;;;5119899;27;20041;-64
2022/05/25 10:42:29;;;;;;;6.30;4.15;;;20.20;99.90;;;;;;5090364;28;20043;-63
2022/05/25 10:45:04;;;;;;;10.23;4.90;;;20.30;99.90;;;;;;5126859;27;20031;-64
2022/05/25 10:48:18;;;;;;;8.98;5.28;;;20.30;99.90;;;;;;5118359;28;20046;-63
2022/05/25 10:50:55;;;;;;;5.85;4.05;;;20.20;99.90;;;;;;5040638;28;20077;-63
2022/05/25 10:54:44;;;;;;;6.32;4.13;;;20.30;99.80;;;;;;5120495;28;20047;-63
2022/05/25 10:57:08;;;;;;;9.48;5.32;;;20.20;99.90;;;;;;5128613;28;20046;-63
2022/05/25 11:00:18;;;;;;;7.65;5.10;;;20.20;99.90;;;;;;5119381;28;20038;-65
2022/05/25 11:02:47;;;;;;;9.32;4.28;;;20.10;99.90;;;;;;5120127;28;20059;-64
2022/05/25 11:05:45;;;;;;;7.40;4.68;;;19.90;99.60;;;;;;5117479;28;20031;-63
2022/05/25 11:08:25;;;;;;;8.40;4.63;;;19.60;99.90;;;;;;5128205;28;20039;-63
2022/05/25 11:11:25;;;;;;;7.00;4.57;;;19.50;99.90;;;;;;5128808;28;20027;-63
2022/05/25 11:14:17;;;;;;;6.00;4.20;;;19.40;99.90;;;;;;5127321;27;20121;-63
2022/05/25 11:17:35;;;;;;;9.35;4.50;;;19.20;99.90;;;;;;5123005;27;20039;-64
2022/05/25 11:20:16;;;;;;;6.85;4.18;;;19.10;99.90;;;;;;5076156;27;20062;-63
2022/05/25 11:23:12;;;;;;;7.75;4.07;;;19.00;99.90;;;;;;5125646;27;20520;-64
2022/05/25 11:25:37;;;;;;;6.43;4.28;;;19.00;99.90;;;;;;5125404;27;20035;-63
2022/05/25 11:28:21;;;;;;;11.65;5.30;;;18.70;99.90;;;;;;5132641;27;20042;-63
2022/05/25 11:31:03;;;;;;;14.40;6.38;;;18.50;99.90;;;;;;5126306;27;20032;-65
2022/05/25 11:33:56;;;;;;;8.80;5.47;;;18.00;99.90;;;;;;5125722;27;20171;-64
2022/05/25 11:36:31;;;;;;;7.18;4.57;;;17.60;99.90;;;;;;5131426;27;20042;-64
2022/05/25 11:39:03;;;;;;;8.00;3.20;;;17.60;99.90;;;;;;5128057;27;20085;-63
2022/05/25 11:41:42;;;;;;;6.70;2.90;;;17.60;99.90;;;;;;5132267;27;20035;-63
2022/05/25 11:44:49;;;;;;;4.75;2.53;;;17.70;99.90;;;;;;5123475;27;20121;-63
2022/05/25 11:47:46;;;;;;;4.78;2.33;;;17.80;99.90;;;;;;5128886;27;20027;-63
2022/05/25 11:50:31;;;;;;;5.72;2.72;;;17.90;99.90;;;;;;5129229;27;20042;-64
2022/05/25 11:53:27;;;;;;;6.32;3.45;;;18.20;99.90;;;;;;5130631;27;20069;-64
2022/05/25 11:56:05;;;;;;;6.80;3.70;;;18.30;99.90;;;;;;5129907;27;20081;-64
2022/05/25 11:58:53;;;;;;;8.00;3.50;;;18.50;99.90;;;;;;5130042;27;20047;-63
2022/05/25 12:01:27;;;;;;;5.78;2.60;;;18.70;99.90;;;;;;5112214;27;20050;-64
2022/05/25 12:04:20;;;;;;;7.65;2.92;;;19.00;99.90;;;;;;5129665;27;20049;-64
2022/05/25 12:06:55;;;;;;;6.22;2.38;;;19.20;99.90;;;;;;5112970;27;20447;-64
2022/05/25 12:09:20;;;;;;;7.68;2.88;;;19.10;99.90;;;;;;5123258;27;20039;-63
2022/05/25 12:12:18;;;;;;;5.47;2.22;;;19.10;99.90;;;;;;5120637;27;20085;-64
2022/05/25 12:15:09;;;;;;;5.75;2.10;;;19.20;99.90;;;;;;5110989;27;20047;-64
2022/05/25 12:18:18;;;;;;;8.13;1.60;;;19.40;99.90;;;;;;5123768;27;20455;-63
2022/05/25 12:21:23;;;;;;;6.18;2.00;;;19.30;99.90;;;;;;5112624;27;20039;-63
2022/05/25 12:23:55;;;;;;;13.57;5.43;;;19.10;99.90;;;;;;5119780;27;20406;-63
2022/05/25 12:26:32;;;;;;;3.95;1.30;;;19.20;99.90;;;;;;5128338;27;20092;-63
2022/05/25 12:29:13;;;;;;;3.60;1.50;;;19.30;99.90;;;;;;5126240;27;20100;-64
2022/05/25 12:31:41;;;;;;;3.30;1.02;;;19.30;99.90;;;;;;5118217;27;20425;-63
2022/05/25 12:34:12;;;;;;;7.32;1.40;;;19.40;99.90;;;;;;5128008;27;20043;-64
2022/05/25 12:36:38;;;;;;;7.47;1.98;;;19.40;99.90;;;;;;5131736;27;20390;-63
2022/05/25 12:39:04;;;;;;;7.93;1.88;;;19.40;99.90;;;;;;5129348;27;20348;-63
2022/05/25 12:41:32;;;;;;;5.00;1.20;;;19.50;99.90;;;;;;5131277;27;20364;-64
2022/05/25 12:48:30;;;;;;;7.78;1.65;;;19.60;99.90;;;;;;5118819;27;20030;-63
2022/05/25 12:49:54;;;;;;;5.75;1.65;;;19.30;99.40;;;;;;5128695;27;20031;-64
2022/05/25 12:52:26;;;;;;;2.17;0.60;;;19.60;99.00;;;;;;5112797;27;20038;-63
2022/05/25 12:54:53;;;;;;;4.65;1.15;;;19.40;97.80;;;;;;5112703;27;20050;-63
2022/05/25 12:57:37;;;;;;;5.03;0.95;;;19.40;98.00;;;;;;5122973;27;20120;-64
2022/05/25 13:00:20;;;;;;;10.53;1.07;;;19.50;98.30;;;;;;5122301;27;20043;-63
2022/05/25 13:02:46;;;;;;;9.93;1.10;;;19.70;97.80;;;;;;5110726;27;20319;-63
2022/05/25 13:05:58;;;;;;;4.60;1.20;;;19.70;98.30;;;;;;5118935;27;20467;-64
2022/05/25 13:08:45;;;;;;;6.50;1.80;;;19.80;98.50;;;;;;5109391;27;20043;-64
2022/05/25 13:11:39;;;;;;;7.25;1.90;;;19.90;99.00;;;;;;5121522;27;20062;-64
2022/05/25 13:14:06;;;;;;;5.13;1.40;;;19.80;99.00;;;;;;5122889;27;20264;-63
2022/05/25 13:16:41;;;;;;;6.60;1.70;;;19.80;97.90;;;;;;5129609;27;20112;-63
2022/05/25 13:19:32;;;;;;;4.15;1.17;;;19.90;97.90;;;;;;5128406;27;20078;-63
2022/05/25 13:22:05;;;;;;;6.18;2.40;;;19.90;97.40;;;;;;5125497;27;20043;-64
2022/05/25 13:25:01;;;;;;;7.47;1.17;;;19.80;97.70;;;;;;5130663;27;20048;-65
2022/05/25 13:27:56;;;;;;;9.13;1.73;;;19.80;98.10;;;;;;5112036;27;20046;-64
2022/05/25 13:30:45;;;;;;;4.55;1.30;;;19.60;98.30;;;;;;5128846;27;20105;-65
2022/05/25 13:33:19;;;;;;;3.92;0.90;;;19.60;98.70;;;;;;5130596;27;20039;-64
2022/05/25 13:36:23;;;;;;;3.92;1.10;;;19.60;98.20;;;;;;5118928;27;20032;-64
2022/05/25 13:38:54;;;;;;;2.67;0.90;;;19.70;98.30;;;;;;5126427;27;20043;-63